Plentywood (PWD)
Plentywood, MT
Field Elevation: 2251
Lat: 48°47.32N  Long: 104°31.39W
CTAF/Unicom Freq: 122.8000
   
     For Weather-by-Phone, call 406-765-2149
Weather Advisories
9/19/2014 03:44 Z
Altimeter 29.60" Hg
Wind 120° @ 0 KT
Gusts --
Visibility 8 SM
Temperature 19° C (66° F)
Dewpoint 11° C (52° F)
Relative Humidity 59%
Density Altitude 3,600 feet
Condensation Altitude 6,400 feet
  Wind and Runways
Indicated Runway = 12
History
 
 
More Info
All DigiWx sites map
NOAA Forecast
 
Airport IQ 5010
(S59) Libby
(6S5) Ravalli County
 
about DigiWx
 
FAA Disclaimer: The data displayed is for advisory purposes only and is not to be used for flight planning or operations. For official data, please call 406-765-2149 to hear the current automated AWOS voice message.
  METAR PWD 190344Z AUTO 12000KT 8SM 19/11 A2960